Flight Track Log - Related Links

Times and Time Zones

All times are in EDT time to prevent confusion due to time zone crossing. See the TAM3961 flight status page for this flight to view local times or setup timezone preferences in your user account.

Time Position Orientation Groundspeed Altitude Reporting Facility
EDT Latitude Longitude Course Direction KTS MPH feet Rate Location/Type
Tue 08:54:00 PM -23.5233 -46.1245 257° West  Level Estimated
Tue 08:55:00 PM -23.5405 -46.2120 258° West  Level Estimated
Tue 08:56:00 PM -23.5576 -46.2995 258° West  Level Estimated
Tue 08:57:00 PM -23.5747 -46.3871 258° West  Level Estimated
Tue 08:58:00 PM -23.5917 -46.4746 258° West  Level Estimated
Tue 08:59:00 PM -23.6087 -46.5622 258° West  Level Estimated
Tue 09:00:00 PM -23.6256 -46.6499 258° West  Level Estimated
Tue 09:01:00 PM -23.6267 -46.6554 258° West  Level Estimated
Tue 09:02:00 PM -23.6267 -46.6554 114° Southeast  Level Estimated
Tue 09:03:00 PM -23.6267 -46.6554 114° Southeast  Level Estimated
Tue 09:04:00 PM -23.6267 -46.6554 114° Southeast  Level Estimated
Tue 09:05:00 PM -23.6267 -46.6554 114° Southeast  Level Estimated
Tue 09:06:00 PM -23.6267 -46.6554 114° Southeast  Level Estimated
Tue 09:07:00 PM -23.6267 -46.6554 114° Southeast  Level Estimated
Tue 09:08:00 PM -23.6267 -46.6554 114° Southeast  Level Estimated
Tue 09:09:00 PM -23.6267 -46.6554 114° Southeast  Level Estimated
Tue 09:10:00 PM -23.6267 -46.6554 114° Southeast  Level Estimated
Tue 09:11:00 PM -23.6267 -46.6554 114° Southeast  Level Estimated
Tue 09:12:00 PM -23.6267 -46.6554 114° Southeast  Level Estimated
Tue 09:13:00 PM -23.6267 -46.6554 114° Southeast  Level Estimated
Tue 09:14:00 PM -23.6267 -46.6554 114° Southeast  Level Estimated
Tue 09:15:00 PM -23.6267 -46.6554 114° Southeast  Level Estimated
Tue 09:16:00 PM -23.6267 -46.6554 114° Southeast  Level Estimated

Login

Don't have an account? Register now (free) for customized features, flight alerts, and more!